Long Beach, New York
Current Conditions -  °F | °C
As of 10:51 AM on Thursday 23 Oct 2014 (Local Time) from KJFK Reporting Station
Light Rain Light Rain  
Wind Chill: 52°   Ceiling: 2100
Heat Index: 52°   Visibility: 10mi
Dew Point: 46°   Wind: 20mph
Humidity: 80%   Direction: 340°NNW
Pressure: 29.7"   Gusts: 29mph
Location:  40.59°N, 73.67°W
Report Text: KJFK 231451Z 34017G25KT 10SM -RA FEW012 BKN021 OVC047 11/08 A2970 RMK AO2 PK WND 35026/1432 RAE03B38 SLP055 P0000 60003 T01110078 51005
Loading
Personal Weather Stations






























Interactive Weather Map
Tropical Storm Tracking
New forecast layout! Learn more

10-Day Weather Forecast

Advertisements
Track Severe Weather on mobile